Time;durP1;ratioP1;P1;durP2;ratioP2;P2;SDS_P1;SDS_P2;PMS_P1;PMS_P2;Temp;Humidity;BMP_temperature;BMP_pressure;BME280_temperature;BME280_humidity;BME280_pressure;Samples;Min_cycle;Max_cycle;Signal;HPM_P1;HPM_P2
2022/01/30 00:00:21;;;;;;;1.60;1.50;;;4.90;99.90;;;;;;5054458;28;20675;-81
2022/01/30 00:02:48;;;;;;;1.58;1.23;;;5.00;99.90;;;;;;5056202;28;20233;-83
2022/01/30 00:05:15;;;;;;;0.70;0.70;;;5.00;99.90;;;;;;5058951;28;20218;-83
2022/01/30 00:07:42;;;;;;;1.27;1.17;;;5.00;99.90;;;;;;5058841;28;20215;-83
2022/01/30 00:10:12;;;;;;;2.00;1.70;;;5.10;99.90;;;;;;5058085;28;20232;-85
2022/01/30 00:12:45;;;;;;;0.90;0.90;;;5.10;99.90;;;;;;5059043;28;20261;-85
2022/01/30 00:15:13;;;;;;;0.98;0.98;;;5.00;99.90;;;;;;5058725;28;20285;-84
2022/01/30 00:17:46;;;;;;;1.33;1.33;;;5.10;99.90;;;;;;5059135;28;20592;-85
2022/01/30 00:20:19;;;;;;;1.08;1.08;;;5.10;99.90;;;;;;5057669;28;20221;-85
2022/01/30 00:22:53;;;;;;;1.05;0.93;;;5.10;99.90;;;;;;5058917;28;20352;-84
2022/01/30 00:25:31;;;;;;;1.10;1.10;;;5.10;99.90;;;;;;5058397;28;20217;-83
2022/01/30 00:28:04;;;;;;;0.60;0.60;;;5.10;99.90;;;;;;5058379;28;20205;-84
2022/01/30 00:30:34;;;;;;;1.00;1.00;;;5.20;99.90;;;;;;5057468;28;20682;-82
2022/01/30 00:33:02;;;;;;;1.00;1.00;;;5.30;99.90;;;;;;5054035;28;20268;-82
2022/01/30 00:35:33;;;;;;;1.35;1.10;;;5.40;99.90;;;;;;5054153;28;20233;-82
2022/01/30 00:37:59;;;;;;;1.38;1.27;;;5.40;99.90;;;;;;5054358;28;20633;-83
2022/01/30 00:40:26;;;;;;;1.75;1.65;;;5.40;99.90;;;;;;5055088;28;20216;-80
2022/01/30 00:42:53;;;;;;;1.33;1.20;;;5.50;99.90;;;;;;5057215;28;20221;-82
2022/01/30 00:45:20;;;;;;;0.80;0.80;;;5.60;99.90;;;;;;5056974;28;20229;-83
2022/01/30 00:47:47;;;;;;;1.40;1.30;;;5.60;99.90;;;;;;5056889;28;20212;-82
2022/01/30 00:50:15;;;;;;;1.17;1.08;;;5.60;99.90;;;;;;5057510;28;20201;-80
2022/01/30 00:52:42;;;;;;;3.03;1.05;;;5.60;99.90;;;;;;5058022;28;20225;-80
2022/01/30 00:55:09;;;;;;;1.17;1.17;;;5.60;99.90;;;;;;5056277;28;20221;-82
2022/01/30 00:57:36;;;;;;;1.00;1.00;;;5.70;99.90;;;;;;5054343;28;20584;-83
2022/01/30 01:00:03;;;;;;;1.40;1.17;;;5.70;99.90;;;;;;5054297;28;20206;-82
2022/01/30 01:02:32;;;;;;;1.50;1.40;;;5.70;99.90;;;;;;5053591;28;20241;-81
2022/01/30 01:05:04;;;;;;;1.40;1.10;;;5.80;99.90;;;;;;5054946;28;20198;-82
2022/01/30 01:07:33;;;;;;;1.40;1.10;;;5.80;99.90;;;;;;5055124;28;20200;-82
2022/01/30 01:10:02;;;;;;;1.50;1.40;;;5.80;99.90;;;;;;5054958;28;20264;-82
2022/01/30 01:12:51;;;;;;;1.65;1.55;;;5.80;99.90;;;;;;5054763;28;20231;-82
2022/01/30 01:21:00;;;;;;;0.90;0.90;;;5.90;99.90;;;;;;5057667;28;20204;-82
2022/01/30 01:23:30;;;;;;;1.65;1.55;;;5.80;99.90;;;;;;5059077;28;20192;-82
2022/01/30 01:25:58;;;;;;;1.17;1.00;;;5.90;99.90;;;;;;5057921;28;20251;-82
2022/01/30 01:28:26;;;;;;;2.10;1.40;;;5.90;99.90;;;;;;5057895;28;20202;-82
2022/01/30 01:30:53;;;;;;;1.40;1.30;;;5.90;99.90;;;;;;5057318;28;20671;-82
2022/01/30 01:33:21;;;;;;;1.50;1.40;;;5.90;99.90;;;;;;5057359;28;20214;-82
2022/01/30 01:35:48;;;;;;;1.30;1.30;;;5.90;99.90;;;;;;5057282;28;20659;-82
2022/01/30 01:38:15;;;;;;;1.27;1.15;;;5.90;99.90;;;;;;5057259;28;20284;-82
2022/01/30 01:40:50;;;;;;;1.15;0.95;;;5.90;99.90;;;;;;5057201;28;20237;-82
2022/01/30 01:43:17;;;;;;;1.70;1.60;;;6.00;99.90;;;;;;5057071;28;20314;-83
2022/01/30 01:45:46;;;;;;;1.13;1.10;;;6.00;99.90;;;;;;5057326;28;20205;-82
2022/01/30 01:48:14;;;;;;;1.05;1.05;;;6.00;99.90;;;;;;5056898;28;20210;-81
2022/01/30 01:50:45;;;;;;;3.00;2.85;;;6.00;99.90;;;;;;5056721;28;20229;-81
2022/01/30 01:53:14;;;;;;;1.40;1.30;;;6.00;99.90;;;;;;5056706;28;20305;-81
2022/01/30 01:55:44;;;;;;;1.17;1.08;;;6.00;99.90;;;;;;5057150;28;20233;-82
2022/01/30 01:58:11;;;;;;;1.65;1.55;;;5.90;99.90;;;;;;5057187;28;20193;-81
2022/01/30 02:00:38;;;;;;;1.60;1.50;;;5.90;99.90;;;;;;5059122;28;20202;-83
2022/01/30 02:03:06;;;;;;;1.42;1.33;;;5.90;99.90;;;;;;5062297;28;20225;-84
2022/01/30 02:05:35;;;;;;;1.73;1.63;;;5.90;99.90;;;;;;5061816;28;20205;-84
2022/01/30 02:08:25;;;;;;;0.90;0.90;;;5.90;99.90;;;;;;5061624;28;20217;-84
2022/01/30 02:10:58;;;;;;;1.92;1.27;;;5.90;99.90;;;;;;5061619;28;20228;-83
2022/01/30 02:24:41;;;;;;;4.20;1.65;;;6.00;99.90;;;;;;5062275;28;20255;-84
2022/01/30 02:27:12;;;;;;;2.00;1.75;;;6.00;99.90;;;;;;5062916;28;20644;-82
2022/01/30 02:29:39;;;;;;;1.45;1.35;;;6.00;99.90;;;;;;5062387;28;20205;-84
2022/01/30 02:32:07;;;;;;;1.67;1.58;;;6.10;99.90;;;;;;5060316;28;20229;-82
2022/01/30 02:34:34;;;;;;;1.60;1.50;;;6.00;99.90;;;;;;5060191;28;20237;-85
2022/01/30 02:37:01;;;;;;;2.03;1.60;;;6.00;99.90;;;;;;5059718;28;20206;-84
2022/01/30 02:39:28;;;;;;;1.92;1.70;;;5.90;99.90;;;;;;5059415;28;20202;-84
2022/01/30 02:41:56;;;;;;;1.67;1.58;;;5.90;99.90;;;;;;5059136;28;20252;-82
2022/01/30 02:44:27;;;;;;;2.03;1.92;;;5.90;99.90;;;;;;5058688;28;20206;-82
2022/01/30 02:47:00;;;;;;;1.33;1.15;;;5.90;99.90;;;;;;5059201;28;20668;-81
2022/01/30 02:49:41;;;;;;;2.80;2.60;;;5.70;99.90;;;;;;5058709;28;20213;-82
2022/01/30 02:52:09;;;;;;;2.35;2.15;;;5.70;99.90;;;;;;5058582;28;20229;-81
2022/01/30 02:54:36;;;;;;;1.80;1.70;;;5.70;99.90;;;;;;5047520;28;20206;-81
2022/01/30 02:57:05;;;;;;;1.95;1.80;;;5.70;99.90;;;;;;5058135;28;20209;-81
2022/01/30 02:59:32;;;;;;;2.10;1.92;;;5.80;99.90;;;;;;5058230;28;20591;-81
2022/01/30 03:02:00;;;;;;;1.40;1.30;;;5.80;99.90;;;;;;5058022;28;20233;-81
2022/01/30 03:04:27;;;;;;;1.80;1.70;;;5.80;99.90;;;;;;5058983;28;20678;-82
2022/01/30 03:06:54;;;;;;;1.52;1.45;;;5.80;99.90;;;;;;5058893;28;20212;-81
2022/01/30 03:09:21;;;;;;;1.50;1.40;;;5.80;99.90;;;;;;5058111;28;20213;-81
2022/01/30 03:11:47;;;;;;;1.40;1.30;;;5.80;99.90;;;;;;5057893;28;20225;-82
2022/01/30 03:14:16;;;;;;;2.28;1.73;;;5.80;99.90;;;;;;5058098;28;20201;-82
2022/01/30 03:16:42;;;;;;;1.70;1.60;;;5.90;99.90;;;;;;5057941;28;20233;-81
2022/01/30 03:19:09;;;;;;;2.10;1.63;;;5.90;99.90;;;;;;5057478;28;20197;-81
2022/01/30 03:21:36;;;;;;;1.73;1.63;;;5.90;99.90;;;;;;5057527;28;20229;-82
2022/01/30 03:24:03;;;;;;;6.18;2.03;;;5.90;99.90;;;;;;5057611;28;20206;-81
2022/01/30 03:26:36;;;;;;;1.20;1.20;;;5.90;99.90;;;;;;5058046;28;20205;-82
2022/01/30 03:29:05;;;;;;;2.40;1.83;;;5.80;99.90;;;;;;5057854;28;20265;-82
2022/01/30 03:31:34;;;;;;;2.58;1.85;;;5.80;99.90;;;;;;5057926;28;20241;-81
2022/01/30 03:34:01;;;;;;;1.48;1.48;;;5.90;99.90;;;;;;5058116;28;20210;-82
2022/01/30 03:36:27;;;;;;;1.50;1.40;;;5.80;99.90;;;;;;5057058;28;20222;-82
2022/01/30 03:38:54;;;;;;;2.08;1.60;;;5.80;99.90;;;;;;5056062;28;20204;-81
2022/01/30 03:41:21;;;;;;;2.28;2.08;;;5.90;99.90;;;;;;5057345;28;20225;-81
2022/01/30 03:43:48;;;;;;;1.95;1.55;;;5.80;99.90;;;;;;5056842;28;20217;-81
2022/01/30 03:46:15;;;;;;;1.83;1.73;;;5.90;99.90;;;;;;5058000;28;20197;-82
2022/01/30 03:48:43;;;;;;;1.83;1.60;;;5.90;99.90;;;;;;5058591;28;20213;-83
2022/01/30 03:51:09;;;;;;;1.95;1.45;;;5.90;99.90;;;;;;5058689;28;20201;-83
2022/01/30 03:53:36;;;;;;;1.40;1.40;;;5.90;99.90;;;;;;5058368;28;20197;-83
2022/01/30 03:56:03;;;;;;;1.10;1.10;;;5.90;99.90;;;;;;5059119;28;20227;-83
2022/01/30 03:58:30;;;;;;;3.20;1.77;;;5.90;99.90;;;;;;5058631;28;20202;-83
2022/01/30 04:00:57;;;;;;;1.00;1.00;;;5.90;99.90;;;;;;5058048;28;20206;-83
2022/01/30 04:03:23;;;;;;;2.10;1.50;;;5.90;99.90;;;;;;5059662;28;20206;-83
2022/01/30 04:05:52;;;;;;;1.55;1.45;;;5.90;99.90;;;;;;5058218;28;20206;-83
2022/01/30 04:08:19;;;;;;;2.50;2.30;;;5.90;99.90;;;;;;5058460;28;20205;-82
2022/01/30 04:10:47;;;;;;;2.20;1.65;;;5.90;99.90;;;;;;5058637;28;20217;-83
2022/01/30 04:13:13;;;;;;;2.53;1.95;;;5.90;99.90;;;;;;5058386;28;20226;-83
2022/01/30 04:15:40;;;;;;;1.80;1.65;;;5.90;99.90;;;;;;5058252;28;20232;-83
2022/01/30 04:18:08;;;;;;;1.98;1.77;;;5.80;99.90;;;;;;5058411;28;20247;-83
2022/01/30 04:20:35;;;;;;;2.40;2.20;;;5.80;99.90;;;;;;5058279;28;20213;-83
2022/01/30 04:23:04;;;;;;;5.03;2.55;;;5.80;99.90;;;;;;5058665;28;20597;-83
2022/01/30 04:25:30;;;;;;;5.47;2.80;;;5.80;99.90;;;;;;5059354;28;20202;-83
2022/01/30 04:27:57;;;;;;;3.90;2.70;;;5.90;99.90;;;;;;5056837;28;20201;-81
2022/01/30 04:30:24;;;;;;;4.63;2.30;;;5.90;99.90;;;;;;5054108;28;20202;-82
2022/01/30 04:32:52;;;;;;;2.83;2.10;;;5.90;99.90;;;;;;5054520;28;20229;-81
2022/01/30 04:35:24;;;;;;;2.53;2.42;;;6.00;99.90;;;;;;5053746;28;20225;-82
2022/01/30 04:38:01;;;;;;;5.40;3.63;;;6.00;99.90;;;;;;5056798;28;20677;-81
2022/01/30 04:57:38;;;;;;;2.85;2.65;;;6.10;99.90;;;;;;5016321;28;20727;-82
2022/01/30 05:00:21;;;;;;;5.03;3.55;;;6.10;99.90;;;;;;5015396;28;20272;-82
2022/01/30 05:02:55;;;;;;;2.33;2.03;;;6.10;99.90;;;;;;5046662;28;20222;-82
2022/01/30 05:05:41;;;;;;;6.15;3.33;;;6.10;99.90;;;;;;5060044;28;20200;-82
2022/01/30 05:08:09;;;;;;;5.28;3.65;;;6.10;99.90;;;;;;5059982;28;20206;-81
2022/01/30 05:10:35;;;;;;;5.25;2.25;;;6.10;99.90;;;;;;5059982;28;20209;-81
2022/01/30 05:13:08;;;;;;;3.28;3.08;;;6.00;99.90;;;;;;5060149;28;20245;-81
2022/01/30 05:15:35;;;;;;;3.35;2.97;;;6.00;99.90;;;;;;5060016;28;20221;-82
2022/01/30 05:18:02;;;;;;;3.72;3.53;;;6.00;99.90;;;;;;5060041;28;20236;-81
2022/01/30 05:20:30;;;;;;;6.03;3.05;;;6.00;99.90;;;;;;5059541;28;20197;-81
2022/01/30 05:22:57;;;;;;;6.30;3.30;;;6.00;99.90;;;;;;5059890;28;20252;-82
2022/01/30 05:25:25;;;;;;;5.88;3.22;;;5.90;99.90;;;;;;5059850;28;20206;-82
2022/01/30 05:27:52;;;;;;;6.28;3.47;;;5.90;99.90;;;;;;5060464;28;20217;-81
2022/01/30 05:30:21;;;;;;;4.72;4.13;;;5.90;99.90;;;;;;5063456;28;20202;-84
2022/01/30 05:32:48;;;;;;;8.35;3.50;;;5.90;99.90;;;;;;5063101;28;20229;-82
2022/01/30 05:35:16;;;;;;;12.77;3.20;;;5.90;99.90;;;;;;5057238;28;20206;-81
2022/01/30 05:37:43;;;;;;;2.80;2.60;;;5.80;99.90;;;;;;5057950;28;20206;-82
2022/01/30 05:40:11;;;;;;;4.43;3.95;;;5.80;99.90;;;;;;5057322;28;20561;-82
2022/01/30 05:42:39;;;;;;;3.42;3.20;;;5.80;99.90;;;;;;5057585;28;20228;-82
2022/01/30 05:45:14;;;;;;;6.22;3.70;;;5.80;99.90;;;;;;5057613;28;20202;-82
2022/01/30 05:47:47;;;;;;;4.95;2.95;;;5.80;99.90;;;;;;5058072;28;20193;-82
2022/01/30 05:50:15;;;;;;;4.18;3.22;;;5.90;99.90;;;;;;5057276;28;20198;-82
2022/01/30 05:52:42;;;;;;;5.95;2.92;;;5.80;99.90;;;;;;5057808;28;20433;-82
2022/01/30 05:55:09;;;;;;;6.05;3.67;;;5.90;99.90;;;;;;5059267;28;20213;-83
2022/01/30 05:57:36;;;;;;;6.38;3.58;;;5.90;99.90;;;;;;5064549;28;20218;-83
2022/01/30 06:00:04;;;;;;;8.10;2.50;;;5.80;99.90;;;;;;5062596;28;20571;-83
2022/01/30 06:02:31;;;;;;;6.65;3.35;;;5.90;99.90;;;;;;5060991;28;20554;-84
2022/01/30 06:04:59;;;;;;;6.70;4.55;;;5.90;99.90;;;;;;5039990;28;20213;-82
2022/01/30 06:07:29;;;;;;;4.32;2.85;;;5.80;99.90;;;;;;5038074;28;20244;-83
2022/01/30 06:09:56;;;;;;;5.90;3.35;;;5.80;99.90;;;;;;5056852;28;20198;-83
2022/01/30 06:12:22;;;;;;;7.03;3.97;;;5.80;99.90;;;;;;5056656;28;20242;-82
2022/01/30 06:14:49;;;;;;;5.05;3.22;;;5.80;99.90;;;;;;5036944;28;20213;-82
2022/01/30 06:17:16;;;;;;;6.18;3.10;;;5.70;99.90;;;;;;5037367;28;20234;-83
2022/01/30 06:19:43;;;;;;;3.65;3.20;;;5.70;99.90;;;;;;5037182;28;20214;-83
2022/01/30 06:22:11;;;;;;;4.20;2.63;;;5.60;99.90;;;;;;5041700;28;20599;-83
2022/01/30 06:24:37;;;;;;;9.98;2.65;;;5.60;99.90;;;;;;5059910;28;20208;-83
2022/01/30 06:27:05;;;;;;;4.00;3.00;;;5.60;99.90;;;;;;5065818;28;20209;-82
2022/01/30 06:29:31;;;;;;;4.20;3.10;;;5.50;99.90;;;;;;5062894;28;20202;-83
2022/01/30 06:31:58;;;;;;;2.55;2.00;;;5.50;99.90;;;;;;5062521;28;20315;-83
2022/01/30 06:34:26;;;;;;;3.45;2.80;;;5.40;99.90;;;;;;5062936;28;20205;-83
2022/01/30 06:36:53;;;;;;;4.95;2.90;;;5.40;99.90;;;;;;5058652;28;20745;-84
2022/01/30 06:39:21;;;;;;;9.20;3.47;;;5.40;99.90;;;;;;5043496;28;20202;-85
2022/01/30 06:41:48;;;;;;;5.40;2.70;;;5.40;99.90;;;;;;5062172;28;20225;-84
2022/01/30 06:44:15;;;;;;;6.80;2.83;;;5.40;99.90;;;;;;5057978;28;20206;-82
2022/01/30 06:46:41;;;;;;;7.40;4.43;;;5.30;99.90;;;;;;5060376;28;20664;-84
2022/01/30 06:49:08;;;;;;;4.25;2.90;;;5.20;99.90;;;;;;5061529;28;20215;-85
2022/01/30 06:51:35;;;;;;;5.63;3.25;;;5.20;99.90;;;;;;5060836;28;20225;-83
2022/01/30 06:54:01;;;;;;;5.93;4.32;;;5.10;99.90;;;;;;5061667;28;20571;-84
2022/01/30 06:56:30;;;;;;;9.25;3.10;;;5.10;99.90;;;;;;5061379;28;20219;-85
2022/01/30 06:58:56;;;;;;;4.25;2.03;;;5.10;99.90;;;;;;5062540;28;20685;-85
2022/01/30 07:01:25;;;;;;;3.70;3.35;;;5.00;99.90;;;;;;5058907;28;20307;-83
2022/01/30 07:03:52;;;;;;;6.95;2.78;;;5.00;99.90;;;;;;5056354;28;20563;-82
2022/01/30 07:06:19;;;;;;;6.72;2.92;;;4.90;99.90;;;;;;5056253;28;20208;-82
2022/01/30 07:08:46;;;;;;;5.63;4.15;;;4.90;99.90;;;;;;5060733;28;20202;-84
2022/01/30 07:11:15;;;;;;;6.18;2.88;;;4.90;99.90;;;;;;5057346;28;20209;-83
2022/01/30 07:13:43;;;;;;;6.32;3.17;;;4.80;99.90;;;;;;5056198;28;20207;-82
2022/01/30 07:16:10;;;;;;;5.75;2.78;;;4.70;99.90;;;;;;5056637;28;20312;-82
2022/01/30 07:18:37;;;;;;;13.85;4.15;;;4.70;99.90;;;;;;5056388;28;20216;-84
2022/01/30 07:21:04;;;;;;;5.95;3.47;;;4.70;99.90;;;;;;5061028;28;20206;-85
2022/01/30 07:23:31;;;;;;;3.25;2.80;;;4.70;99.90;;;;;;5062087;28;20298;-84
2022/01/30 07:25:58;;;;;;;9.32;3.97;;;4.60;99.90;;;;;;5060820;28;20695;-83
2022/01/30 07:28:25;;;;;;;4.10;2.80;;;4.70;99.90;;;;;;5061545;28;20213;-83
2022/01/30 07:30:53;;;;;;;3.55;3.25;;;4.60;99.90;;;;;;5061678;28;20206;-83
2022/01/30 07:33:19;;;;;;;7.05;3.45;;;4.70;99.90;;;;;;5060865;28;20221;-84
2022/01/30 07:35:46;;;;;;;7.82;3.80;;;4.60;99.90;;;;;;5060295;28;20200;-83
2022/01/30 07:38:13;;;;;;;6.43;3.83;;;4.70;99.90;;;;;;5061125;28;20248;-84
2022/01/30 07:40:40;;;;;;;4.32;3.10;;;4.70;99.90;;;;;;5060492;28;20198;-83
2022/01/30 07:43:07;;;;;;;3.38;3.15;;;4.80;99.90;;;;;;5061372;28;20229;-83
2022/01/30 07:45:34;;;;;;;4.40;3.65;;;4.90;99.90;;;;;;5061172;28;20296;-83
2022/01/30 07:48:02;;;;;;;7.53;4.55;;;4.90;99.90;;;;;;5060861;28;20201;-83
2022/01/30 07:50:29;;;;;;;7.30;4.57;;;4.90;99.90;;;;;;5060031;28;20736;-83
2022/01/30 07:52:56;;;;;;;7.97;4.53;;;4.90;99.90;;;;;;5060337;28;20217;-84
2022/01/30 07:55:23;;;;;;;3.50;3.15;;;5.00;99.90;;;;;;5060982;28;20213;-83
2022/01/30 07:57:49;;;;;;;5.93;4.93;;;5.00;99.90;;;;;;5060768;28;20218;-84
2022/01/30 08:00:17;;;;;;;6.35;3.65;;;5.10;99.90;;;;;;5060116;28;20212;-84
2022/01/30 08:02:44;;;;;;;4.45;3.50;;;5.10;99.90;;;;;;5060349;28;20229;-84
2022/01/30 08:05:12;;;;;;;8.30;4.10;;;5.10;99.90;;;;;;5060641;28;20220;-83
2022/01/30 08:07:39;;;;;;;7.07;3.33;;;5.10;99.90;;;;;;5060894;28;20201;-83
2022/01/30 08:10:06;;;;;;;1.80;1.70;;;5.20;99.90;;;;;;5060785;28;20205;-83
2022/01/30 08:12:33;;;;;;;8.07;3.80;;;5.20;99.90;;;;;;5060357;28;20236;-83
2022/01/30 08:15:00;;;;;;;4.75;2.63;;;5.30;99.90;;;;;;5060369;28;20216;-84
2022/01/30 08:17:26;;;;;;;4.13;2.35;;;5.30;99.90;;;;;;5060505;28;20225;-84
2022/01/30 08:19:53;;;;;;;5.75;2.88;;;5.30;99.90;;;;;;5059526;28;20205;-83
2022/01/30 08:22:21;;;;;;;5.45;1.98;;;5.30;99.90;;;;;;5060564;28;20691;-83
2022/01/30 08:24:48;;;;;;;5.50;3.20;;;5.30;99.90;;;;;;5059854;28;20202;-83
2022/01/30 08:27:15;;;;;;;4.88;3.92;;;5.30;99.90;;;;;;5060446;28;20216;-83
2022/01/30 08:29:41;;;;;;;4.55;3.17;;;5.40;99.90;;;;;;5059858;28;20210;-82
2022/01/30 08:32:11;;;;;;;7.15;3.33;;;5.40;99.90;;;;;;5060598;28;20232;-83
2022/01/30 08:34:39;;;;;;;4.03;1.85;;;5.50;99.90;;;;;;5060570;28;20201;-85
2022/01/30 08:37:06;;;;;;;5.88;2.90;;;5.60;99.90;;;;;;5064446;28;20221;-84
2022/01/30 08:39:34;;;;;;;13.38;3.03;;;5.60;99.90;;;;;;5058898;28;20213;-82
2022/01/30 08:42:01;;;;;;;9.80;2.70;;;5.60;99.90;;;;;;5056461;28;20236;-81
2022/01/30 08:44:28;;;;;;;8.82;3.42;;;5.80;99.90;;;;;;5057289;28;20208;-82
2022/01/30 08:46:55;;;;;;;3.13;2.75;;;5.90;99.90;;;;;;5057246;28;20651;-82
2022/01/30 08:49:22;;;;;;;5.95;2.35;;;5.90;99.90;;;;;;5057598;28;20205;-82
2022/01/30 08:51:48;;;;;;;3.65;2.25;;;5.80;99.90;;;;;;5056822;28;20225;-81
2022/01/30 08:54:15;;;;;;;7.20;2.47;;;5.60;99.90;;;;;;5058892;28;20205;-82
2022/01/30 08:56:43;;;;;;;3.70;2.70;;;5.50;99.90;;;;;;5058143;28;20226;-82
2022/01/30 08:59:10;;;;;;;4.18;2.78;;;5.50;99.90;;;;;;5056902;28;20198;-82
2022/01/30 09:01:37;;;;;;;3.67;2.10;;;5.50;99.90;;;;;;5056293;28;20252;-82
2022/01/30 09:04:04;;;;;;;8.60;4.00;;;5.50;99.90;;;;;;5057346;28;20306;-82
2022/01/30 09:06:31;;;;;;;2.03;1.48;;;5.40;99.90;;;;;;5047786;28;20315;-82
2022/01/30 09:09:00;;;;;;;3.80;2.22;;;5.40;99.90;;;;;;5047232;28;20210;-82
2022/01/30 09:11:27;;;;;;;4.10;3.30;;;5.30;99.90;;;;;;5047403;28;20290;-81
2022/01/30 09:13:55;;;;;;;5.93;2.97;;;5.40;99.90;;;;;;5049219;28;20201;-81
2022/01/30 09:16:22;;;;;;;3.88;3.53;;;5.50;99.90;;;;;;5046349;28;20209;-81
2022/01/30 09:18:49;;;;;;;7.07;2.38;;;5.70;99.90;;;;;;5048026;28;20201;-81
2022/01/30 09:21:15;;;;;;;4.20;2.55;;;5.70;99.90;;;;;;5047750;28;20202;-81
2022/01/30 09:23:42;;;;;;;4.65;2.40;;;6.00;99.90;;;;;;5046695;28;20198;-81
2022/01/30 09:26:09;;;;;;;9.55;2.72;;;5.90;99.90;;;;;;5046965;28;20209;-82
2022/01/30 09:28:36;;;;;;;4.80;2.55;;;6.00;99.90;;;;;;5048923;28;20196;-80
2022/01/30 09:31:04;;;;;;;5.28;3.10;;;6.10;99.90;;;;;;5061170;28;20198;-82
2022/01/30 09:33:31;;;;;;;5.57;2.47;;;6.20;99.90;;;;;;5048143;28;20213;-82
2022/01/30 09:35:58;;;;;;;6.28;2.78;;;6.20;99.90;;;;;;5053778;28;20308;-82
2022/01/30 09:38:24;;;;;;;5.45;2.75;;;6.10;99.90;;;;;;5054417;28;20711;-82
2022/01/30 09:40:54;;;;;;;6.47;2.60;;;5.90;99.90;;;;;;5063273;28;20656;-81
2022/01/30 09:43:21;;;;;;;2.05;1.45;;;6.00;99.90;;;;;;5060266;28;20248;-82
2022/01/30 09:45:48;;;;;;;4.68;2.25;;;6.00;99.90;;;;;;5059604;28;20203;-82
2022/01/30 09:48:18;;;;;;;2.28;1.88;;;6.00;99.90;;;;;;5060360;28;20197;-82
2022/01/30 09:50:44;;;;;;;9.52;2.95;;;6.10;99.90;;;;;;5066367;28;20561;-82
2022/01/30 09:53:11;;;;;;;4.07;3.13;;;6.20;99.90;;;;;;5063104;28;20226;-81
2022/01/30 09:55:38;;;;;;;3.25;1.70;;;6.20;99.90;;;;;;5064098;28;20227;-82
2022/01/30 09:58:05;;;;;;;3.70;2.78;;;6.20;99.90;;;;;;5054668;28;20293;-83
2022/01/30 10:00:32;;;;;;;6.07;2.80;;;6.10;99.90;;;;;;5061130;28;20197;-83
2022/01/30 10:02:59;;;;;;;2.42;2.08;;;6.10;99.90;;;;;;5063937;28;20234;-83
2022/01/30 10:05:32;;;;;;;4.13;2.45;;;6.10;99.90;;;;;;5063743;28;20210;-82
2022/01/30 10:07:59;;;;;;;2.67;2.20;;;6.10;99.90;;;;;;5065858;28;20198;-82
2022/01/30 10:10:29;;;;;;;2.53;2.33;;;6.20;99.90;;;;;;5064771;28;20229;-83
2022/01/30 10:13:04;;;;;;;4.75;4.07;;;6.30;99.90;;;;;;5059197;28;20604;-84
2022/01/30 10:15:31;;;;;;;4.45;4.05;;;6.30;99.90;;;;;;5061654;28;20588;-83
2022/01/30 10:17:58;;;;;;;6.50;2.10;;;6.40;99.90;;;;;;5063735;28;20305;-83
2022/01/30 10:20:27;;;;;;;7.72;3.50;;;6.50;99.90;;;;;;5062975;28;20201;-82
2022/01/30 10:22:56;;;;;;;4.53;2.40;;;6.70;99.90;;;;;;5058936;28;20217;-83
2022/01/30 10:25:25;;;;;;;6.38;2.83;;;6.80;99.90;;;;;;5060429;28;20212;-82
2022/01/30 10:28:07;;;;;;;7.05;3.25;;;6.80;99.90;;;;;;5060766;28;20205;-82
2022/01/30 10:30:41;;;;;;;2.80;1.80;;;6.80;99.90;;;;;;5057053;28;20197;-82
2022/01/30 10:33:09;;;;;;;6.38;2.22;;;6.50;99.90;;;;;;5063008;28;20217;-83
2022/01/30 10:35:52;;;;;;;4.63;2.95;;;6.20;99.90;;;;;;5065863;28;20208;-83
2022/01/30 10:38:24;;;;;;;5.07;2.08;;;6.10;99.90;;;;;;5064820;28;20228;-83
2022/01/30 10:40:59;;;;;;;3.70;2.85;;;5.90;99.90;;;;;;5069724;28;20206;-84
2022/01/30 10:44:13;;;;;;;4.43;2.05;;;6.10;99.90;;;;;;5068760;28;20201;-85
2022/01/30 10:53:30;;;;;;;6.72;1.95;;;6.30;99.90;;;;;;5059062;28;20299;-85
2022/01/30 10:56:00;;;;;;;4.05;3.30;;;6.40;99.90;;;;;;5058353;28;20205;-85
2022/01/30 10:58:29;;;;;;;3.63;1.80;;;6.30;99.90;;;;;;5062228;28;20792;-85
2022/01/30 11:00:58;;;;;;;13.43;3.33;;;6.30;99.90;;;;;;5063286;28;20206;-87
2022/01/30 11:03:51;;;;;;;1.55;1.38;;;6.50;99.90;;;;;;5063833;28;20205;-85
2022/01/30 11:06:18;;;;;;;3.53;2.70;;;7.10;99.70;;;;;;5063875;28;20209;-85
2022/01/30 11:08:50;;;;;;;5.30;3.47;;;7.30;99.20;;;;;;5062881;28;20206;-85
2022/01/30 11:11:28;;;;;;;4.30;2.05;;;7.30;99.70;;;;;;5062725;28;20228;-85
2022/01/30 11:14:03;;;;;;;11.88;3.78;;;7.80;99.50;;;;;;5064632;28;20198;-84
2022/01/30 11:19:17;;;;;;;5.22;2.55;;;8.20;97.90;;;;;;5061889;28;20288;-83
2022/01/30 11:21:48;;;;;;;2.58;2.08;;;7.90;96.80;;;;;;5064404;28;20289;-84
2022/01/30 11:24:40;;;;;;;2.05;1.95;;;8.00;97.30;;;;;;5067792;28;20202;-85
2022/01/30 11:27:09;;;;;;;9.40;3.55;;;7.50;97.50;;;;;;5066605;28;20194;-85
2022/01/30 11:29:38;;;;;;;9.45;2.00;;;7.30;97.90;;;;;;5070639;28;20593;-85
2022/01/30 11:32:18;;;;;;;6.18;2.80;;;6.40;97.80;;;;;;5072487;28;20235;-85
2022/01/30 11:34:45;;;;;;;5.40;2.63;;;6.30;99.20;;;;;;5069257;28;20217;-81
2022/01/30 11:37:14;;;;;;;2.03;1.92;;;6.10;99.90;;;;;;5067007;28;20273;-80
2022/01/30 11:39:46;;;;;;;4.78;2.50;;;5.80;99.90;;;;;;5065473;28;20201;-80
2022/01/30 11:42:17;;;;;;;5.00;2.28;;;5.80;99.90;;;;;;5063695;28;20221;-79
2022/01/30 11:44:46;;;;;;;4.63;2.10;;;5.70;99.90;;;;;;5065591;28;20625;-80
2022/01/30 11:47:18;;;;;;;4.38;2.45;;;5.70;99.90;;;;;;5064736;28;20210;-80
2022/01/30 11:50:02;;;;;;;4.57;3.60;;;5.70;99.90;;;;;;5063804;28;20209;-81
2022/01/30 11:52:57;;;;;;;7.10;3.58;;;5.70;99.90;;;;;;5058808;28;20226;-80
2022/01/30 11:55:54;;;;;;;4.22;3.28;;;5.60;99.90;;;;;;5060758;28;20273;-81
2022/01/30 11:58:38;;;;;;;6.57;2.47;;;5.80;99.90;;;;;;5040677;28;20218;-80
2022/01/30 12:01:06;;;;;;;3.65;2.35;;;7.00;99.90;;;;;;5043627;28;20392;-80
2022/01/30 12:03:35;;;;;;;12.70;3.92;;;7.50;98.90;;;;;;5058826;28;20206;-80
2022/01/30 12:06:30;;;;;;;6.55;3.15;;;7.40;98.40;;;;;;5057533;28;20197;-80
2022/01/30 12:08:59;;;;;;;3.83;2.13;;;7.10;99.00;;;;;;5061864;28;20201;-82
2022/01/30 12:11:59;;;;;;;4.97;2.53;;;7.50;98.90;;;;;;5065049;28;20225;-82
2022/01/30 12:14:53;;;;;;;3.72;3.05;;;7.50;98.30;;;;;;5037642;28;20209;-80
2022/01/30 12:17:57;;;;;;;3.95;2.22;;;7.00;98.20;;;;;;5044777;28;20263;-82
2022/01/30 12:20:23;;;;;;;3.70;3.22;;;6.90;99.10;;;;;;5037721;28;20209;-80
2022/01/30 12:22:51;;;;;;;4.13;2.05;;;7.70;98.90;;;;;;5056777;28;20290;-80
2022/01/30 12:25:36;;;;;;;2.67;2.47;;;7.60;97.00;;;;;;5057056;28;20214;-80
2022/01/30 12:28:15;;;;;;;4.57;2.92;;;7.40;97.40;;;;;;5032692;28;20613;-82
2022/01/30 12:30:46;;;;;;;3.13;2.65;;;7.30;97.70;;;;;;5035831;28;20205;-81
2022/01/30 12:33:36;;;;;;;3.67;2.88;;;7.30;97.40;;;;;;5053232;28;20590;-81
2022/01/30 12:36:05;;;;;;;4.95;3.35;;;7.50;97.30;;;;;;5052494;28;20198;-81
2022/01/30 12:38:34;;;;;;;3.83;3.10;;;8.00;96.20;;;;;;5049567;28;20221;-81
2022/01/30 12:41:01;;;;;;;2.72;2.53;;;8.50;96.00;;;;;;5051536;28;20232;-80
2022/01/30 12:43:31;;;;;;;5.57;2.22;;;9.10;94.60;;;;;;5053599;28;20213;-80
2022/01/30 12:46:08;;;;;;;4.63;2.60;;;8.80;94.40;;;;;;5053521;28;20668;-81
2022/01/30 12:48:35;;;;;;;3.50;2.67;;;8.40;94.80;;;;;;5053935;28;20216;-80
2022/01/30 12:51:12;;;;;;;3.33;3.03;;;8.00;94.80;;;;;;5053195;28;20210;-84
2022/01/30 12:53:57;;;;;;;2.85;2.08;;;7.90;95.50;;;;;;5053432;28;20209;-85
2022/01/30 12:56:25;;;;;;;6.70;2.90;;;7.20;96.70;;;;;;5054204;28;20213;-81
2022/01/30 12:58:56;;;;;;;1.90;1.80;;;7.00;97.70;;;;;;5053999;28;20592;-81
2022/01/30 13:01:27;;;;;;;3.83;3.42;;;6.60;98.00;;;;;;5053003;28;20233;-81
2022/01/30 13:04:05;;;;;;;4.00;2.92;;;6.50;98.90;;;;;;5053896;28;20213;-81
2022/01/30 13:06:33;;;;;;;4.45;2.22;;;6.50;99.20;;;;;;5053389;28;20582;-79
2022/01/30 13:09:00;;;;;;;6.00;3.58;;;6.90;98.80;;;;;;5053966;28;20202;-80
2022/01/30 13:11:27;;;;;;;6.32;2.40;;;7.70;96.70;;;;;;5055598;28;20592;-81
2022/01/30 13:13:57;;;;;;;4.15;2.33;;;7.70;96.40;;;;;;5059505;28;20693;-83
2022/01/30 13:16:32;;;;;;;3.83;3.00;;;7.90;95.50;;;;;;5068305;28;20399;-83
2022/01/30 13:19:08;;;;;;;3.03;2.25;;;7.70;96.10;;;;;;5061682;28;20209;-86
2022/01/30 13:21:36;;;;;;;5.63;2.75;;;8.30;95.80;;;;;;5059100;28;20222;-82
2022/01/30 13:24:05;;;;;;;3.90;1.88;;;8.00;94.90;;;;;;5061979;28;20205;-82
2022/01/30 13:26:37;;;;;;;2.83;2.53;;;7.50;95.80;;;;;;5064399;28;20198;-82
2022/01/30 13:29:08;;;;;;;4.13;2.88;;;7.10;96.10;;;;;;5068316;28;20221;-82
2022/01/30 13:31:38;;;;;;;7.30;2.97;;;7.00;97.10;;;;;;5063941;28;20230;-82
2022/01/30 13:34:10;;;;;;;11.50;4.45;;;7.40;97.20;;;;;;5065416;28;20220;-81
2022/01/30 13:36:38;;;;;;;8.77;4.50;;;7.10;97.00;;;;;;5066457;28;20212;-82
2022/01/30 13:39:08;;;;;;;12.80;6.18;;;6.90;97.50;;;;;;5066075;28;20316;-82
2022/01/30 13:41:48;;;;;;;7.65;4.85;;;6.60;98.00;;;;;;5065514;28;20268;-83
2022/01/30 13:44:25;;;;;;;8.32;3.67;;;6.60;98.30;;;;;;5064990;28;20202;-82
2022/01/30 13:47:02;;;;;;;5.63;2.80;;;6.70;98.30;;;;;;5066638;28;20198;-84
2022/01/30 13:49:30;;;;;;;5.43;3.80;;;6.70;98.30;;;;;;5064532;28;20206;-83
2022/01/30 13:52:07;;;;;;;6.65;3.42;;;6.90;98.60;;;;;;5063718;28;20225;-82
2022/01/30 13:54:34;;;;;;;7.68;3.22;;;6.90;98.30;;;;;;5062583;28;20627;-82